Time;durP1;ratioP1;P1;durP2;ratioP2;P2;SDS_P1;SDS_P2;PMS_P1;PMS_P2;Temp;Humidity;BMP_temperature;BMP_pressure;BME280_temperature;BME280_humidity;BME280_pressure;Samples;Min_cycle;Max_cycle;Signal;HPM_P1;HPM_P2
2022/05/14 00:00:18;;;;;;;6.78;2.53;;;13.80;95.00;;;;;;5092145;28;20119;-41
2022/05/14 00:02:44;;;;;;;7.55;3.17;;;13.80;95.10;;;;;;5085287;28;20046;-43
2022/05/14 00:05:10;;;;;;;5.32;2.40;;;13.70;95.20;;;;;;5094549;28;20130;-42
2022/05/14 00:07:36;;;;;;;7.15;2.60;;;13.70;95.20;;;;;;5092335;28;20034;-43
2022/05/14 00:10:02;;;;;;;8.38;3.30;;;13.70;95.30;;;;;;5098205;28;20106;-40
2022/05/14 00:15:11;;;;;;;7.10;3.05;;;13.60;95.50;;;;;;5098986;28;20074;-40
2022/05/14 00:17:37;;;;;;;8.77;3.15;;;13.50;95.50;;;;;;5099029;28;20028;-40
2022/05/14 00:20:02;;;;;;;9.82;3.05;;;13.50;95.60;;;;;;5104175;28;20031;-41
2022/05/14 00:22:28;;;;;;;6.95;3.67;;;13.40;95.70;;;;;;5100049;28;20023;-39
2022/05/14 00:24:53;;;;;;;5.80;3.03;;;13.40;95.70;;;;;;5107760;28;20502;-41
2022/05/14 00:27:22;;;;;;;8.23;2.90;;;13.30;95.80;;;;;;5097972;28;20055;-40
2022/05/14 00:29:47;;;;;;;7.35;3.00;;;13.30;95.90;;;;;;5107512;28;20039;-41
2022/05/14 00:32:13;;;;;;;6.25;2.90;;;13.20;96.00;;;;;;5098045;28;20051;-43
2022/05/14 00:34:38;;;;;;;7.05;3.20;;;13.20;96.10;;;;;;5109548;28;20023;-41
2022/05/14 00:37:04;;;;;;;8.13;3.38;;;13.20;96.20;;;;;;5095114;28;20030;-41
2022/05/14 00:39:29;;;;;;;7.15;3.22;;;13.10;96.30;;;;;;5109337;28;20044;-42
2022/05/14 00:41:55;;;;;;;7.10;3.38;;;13.10;96.40;;;;;;5096379;28;20144;-40
2022/05/14 00:44:20;;;;;;;6.30;2.80;;;13.10;96.50;;;;;;5109328;28;20039;-44
2022/05/14 00:46:55;;;;;;;7.22;3.60;;;13.10;96.50;;;;;;5098047;28;20493;-41
2022/05/14 00:49:23;;;;;;;7.32;3.47;;;13.10;96.70;;;;;;5109374;28;20028;-41
2022/05/14 00:51:49;;;;;;;7.25;3.50;;;13.00;96.80;;;;;;5098659;28;20027;-42
2022/05/14 00:54:21;;;;;;;8.00;3.25;;;13.00;96.90;;;;;;5106766;28;20511;-41
2022/05/14 00:56:52;;;;;;;6.60;3.65;;;13.00;97.00;;;;;;5100415;28;20081;-42
2022/05/14 00:59:20;;;;;;;6.50;3.47;;;13.00;97.00;;;;;;5105163;28;20095;-41
2022/05/14 01:01:48;;;;;;;7.50;3.30;;;13.00;97.10;;;;;;5101414;28;20096;-41
2022/05/14 01:04:14;;;;;;;8.40;3.83;;;13.00;97.20;;;;;;5102811;28;20046;-41
2022/05/14 01:06:46;;;;;;;8.73;3.65;;;12.90;97.20;;;;;;5103267;28;20471;-41
2022/05/14 01:09:12;;;;;;;6.22;3.33;;;12.90;97.30;;;;;;5089379;28;20028;-42
2022/05/14 01:11:39;;;;;;;8.90;4.15;;;12.90;97.30;;;;;;5090802;28;20655;-41
2022/05/14 01:14:06;;;;;;;7.97;3.35;;;12.90;97.30;;;;;;5098315;28;20064;-41
2022/05/14 01:16:32;;;;;;;9.57;3.20;;;12.90;97.30;;;;;;5089484;28;20028;-42
2022/05/14 01:18:59;;;;;;;8.77;3.22;;;12.90;97.30;;;;;;5099428;28;20024;-42
2022/05/14 01:21:54;;;;;;;7.35;3.10;;;12.80;97.40;;;;;;5089638;28;20517;-43
2022/05/14 01:27:24;;;;;;;7.40;3.15;;;12.80;97.50;;;;;;5102472;28;20545;-42
2022/05/14 01:29:50;;;;;;;6.85;3.30;;;12.80;97.50;;;;;;5100743;28;20047;-41
2022/05/14 01:32:16;;;;;;;5.00;3.10;;;12.80;97.50;;;;;;5106290;28;20008;-41
2022/05/14 01:34:43;;;;;;;8.75;3.13;;;13.00;97.60;;;;;;5097367;28;20740;-40
2022/05/14 01:37:10;;;;;;;5.88;3.15;;;13.00;97.60;;;;;;5107443;28;20028;-40
2022/05/14 01:39:36;;;;;;;6.60;2.90;;;13.10;97.60;;;;;;5096789;28;20111;-42
2022/05/14 01:42:01;;;;;;;6.63;2.80;;;13.10;97.50;;;;;;5106775;28;20047;-42
2022/05/14 01:44:27;;;;;;;3.38;2.20;;;13.10;97.50;;;;;;5095860;28;20040;-42
2022/05/14 01:46:52;;;;;;;5.60;2.58;;;13.10;97.40;;;;;;5108109;28;20035;-42
2022/05/14 01:49:18;;;;;;;4.93;2.72;;;13.10;97.50;;;;;;5095001;28;20035;-42
2022/05/14 01:51:44;;;;;;;4.00;2.20;;;13.10;97.50;;;;;;5107935;28;20019;-44
2022/05/14 01:54:09;;;;;;;6.95;3.20;;;13.10;97.60;;;;;;5095081;28;20884;-42
2022/05/14 01:56:35;;;;;;;9.27;2.60;;;13.10;97.60;;;;;;5106960;28;20024;-42
2022/05/14 01:59:00;;;;;;;6.03;2.70;;;13.20;97.60;;;;;;5098276;28;20063;-43
2022/05/14 02:01:29;;;;;;;6.07;2.63;;;13.20;97.60;;;;;;5104033;28;20034;-43
2022/05/14 02:04:10;;;;;;;5.43;2.47;;;13.20;97.60;;;;;;5099761;28;20048;-42
2022/05/14 02:06:36;;;;;;;9.40;2.95;;;13.10;97.70;;;;;;5104296;28;20046;-43
2022/05/14 02:09:05;;;;;;;7.72;2.80;;;13.10;97.70;;;;;;5099279;28;20028;-42
2022/05/14 02:11:31;;;;;;;6.63;2.50;;;13.00;97.80;;;;;;5101782;28;20031;-42
2022/05/14 02:13:56;;;;;;;6.10;2.72;;;13.00;97.90;;;;;;5102575;28;20020;-40
2022/05/14 02:16:22;;;;;;;6.18;2.85;;;13.00;97.90;;;;;;5098954;28;20028;-41
2022/05/14 02:18:48;;;;;;;9.93;2.67;;;13.00;97.90;;;;;;5104676;28;20023;-41
2022/05/14 02:21:14;;;;;;;9.75;2.72;;;12.90;98.00;;;;;;5096679;28;20051;-42
2022/05/14 02:23:41;;;;;;;9.35;3.25;;;12.90;98.00;;;;;;5105231;28;20020;-42
2022/05/14 02:26:09;;;;;;;9.50;3.30;;;12.90;98.00;;;;;;5096307;28;20028;-42
2022/05/14 02:28:34;;;;;;;10.02;3.55;;;12.80;98.10;;;;;;5105649;28;20111;-42
2022/05/14 02:31:00;;;;;;;6.70;3.05;;;12.80;98.10;;;;;;5095585;28;20114;-42
2022/05/14 02:33:26;;;;;;;5.63;2.95;;;12.80;98.20;;;;;;5106957;28;20561;-42
2022/05/14 02:35:52;;;;;;;6.30;3.15;;;12.70;98.20;;;;;;5094014;28;20032;-42
2022/05/14 02:38:17;;;;;;;6.45;3.35;;;12.70;98.30;;;;;;5106322;28;20026;-42
2022/05/14 02:40:43;;;;;;;5.88;2.88;;;12.70;98.30;;;;;;5093949;28;20039;-41
2022/05/14 02:43:09;;;;;;;11.05;3.22;;;12.60;98.40;;;;;;5105781;28;20100;-41
2022/05/14 02:45:35;;;;;;;7.25;3.15;;;12.50;98.40;;;;;;5096360;28;20032;-42
2022/05/14 02:48:01;;;;;;;5.63;3.03;;;12.50;98.50;;;;;;5104531;28;20032;-42
2022/05/14 02:50:27;;;;;;;5.47;3.00;;;12.50;98.50;;;;;;5098236;28;20151;-41
2022/05/14 02:52:53;;;;;;;5.53;3.05;;;12.40;98.60;;;;;;5101806;28;20019;-41
2022/05/14 02:55:19;;;;;;;7.03;3.00;;;12.40;98.60;;;;;;5101792;28;20889;-41
2022/05/14 02:57:44;;;;;;;6.20;3.22;;;12.30;98.70;;;;;;5098219;28;20063;-41
2022/05/14 03:00:13;;;;;;;9.85;2.95;;;12.30;98.80;;;;;;5105273;28;20066;-42
2022/05/14 03:02:38;;;;;;;6.93;3.53;;;12.20;98.80;;;;;;5096486;28;20028;-41
2022/05/14 03:05:05;;;;;;;9.63;3.42;;;12.20;98.90;;;;;;5104128;28;20050;-40
2022/05/14 03:07:30;;;;;;;8.38;3.38;;;12.20;99.00;;;;;;5094096;28;20012;-39
2022/05/14 03:09:56;;;;;;;5.70;3.30;;;12.20;99.00;;;;;;5087316;28;20500;-42
2022/05/14 03:12:22;;;;;;;6.35;3.05;;;12.20;99.10;;;;;;5096813;28;20495;-38
2022/05/14 03:14:51;;;;;;;8.10;3.38;;;12.20;99.20;;;;;;5086025;28;20028;-41
2022/05/14 03:17:17;;;;;;;8.05;3.30;;;12.20;99.20;;;;;;5098668;28;20020;-42
2022/05/14 03:19:43;;;;;;;7.25;3.17;;;12.20;99.30;;;;;;5085330;28;20062;-41
2022/05/14 03:22:09;;;;;;;5.75;3.03;;;12.20;99.30;;;;;;5099060;28;20023;-39
2022/05/14 03:24:38;;;;;;;7.43;3.40;;;12.20;99.30;;;;;;5085588;28;20036;-40
2022/05/14 03:27:05;;;;;;;9.32;3.05;;;12.10;99.40;;;;;;5096017;28;20019;-42
2022/05/14 03:29:32;;;;;;;5.32;3.10;;;12.10;99.40;;;;;;5087302;28;20063;-41
2022/05/14 03:31:58;;;;;;;6.97;3.55;;;12.10;99.40;;;;;;5094176;28;20558;-41
2022/05/14 03:34:25;;;;;;;4.68;3.10;;;12.00;99.40;;;;;;5089008;28;20040;-41
2022/05/14 03:36:51;;;;;;;8.70;3.53;;;12.00;99.50;;;;;;5091901;28;20466;-42
2022/05/14 03:39:17;;;;;;;6.43;3.33;;;12.00;99.60;;;;;;5092108;28;20106;-42
2022/05/14 03:41:43;;;;;;;7.78;3.00;;;12.00;99.60;;;;;;5087853;28;20016;-41
2022/05/14 03:44:08;;;;;;;18.17;4.93;;;11.90;99.60;;;;;;5095326;28;20039;-41
2022/05/14 03:46:34;;;;;;;8.18;3.00;;;11.90;99.70;;;;;;5085920;28;20016;-42
2022/05/14 03:49:00;;;;;;;7.82;3.60;;;11.90;99.70;;;;;;5096804;28;20032;-42
2022/05/14 03:51:26;;;;;;;10.77;3.72;;;11.80;99.80;;;;;;5086066;28;20095;-41
2022/05/14 03:53:52;;;;;;;7.95;3.47;;;11.80;99.90;;;;;;5096178;28;20024;-41
2022/05/14 03:56:17;;;;;;;6.10;3.10;;;11.80;99.90;;;;;;5085728;28;20042;-41
2022/05/14 03:58:43;;;;;;;5.80;3.40;;;11.80;99.90;;;;;;5097906;28;20213;-41
2022/05/14 04:01:08;;;;;;;4.60;3.17;;;11.90;99.90;;;;;;5085441;28;20024;-41
2022/05/14 04:03:34;;;;;;;5.15;3.20;;;11.80;99.90;;;;;;5097303;28;20452;-41
2022/05/14 04:06:01;;;;;;;9.23;3.40;;;11.80;99.90;;;;;;5085826;28;20063;-41
2022/05/14 04:08:27;;;;;;;9.25;3.13;;;11.80;99.90;;;;;;5087495;28;20042;-41
2022/05/14 04:10:53;;;;;;;9.13;3.10;;;11.80;99.90;;;;;;5086372;28;20472;-41
2022/05/14 04:13:18;;;;;;;6.47;2.85;;;11.80;99.90;;;;;;5092653;28;20025;-42
2022/05/14 04:15:44;;;;;;;7.65;3.00;;;11.70;99.90;;;;;;5101054;28;20911;-40
2022/05/14 04:18:09;;;;;;;6.13;3.00;;;11.70;99.90;;;;;;5100657;28;20048;-46
2022/05/14 04:20:35;;;;;;;5.32;3.38;;;11.70;99.90;;;;;;5098641;28;20373;-44
2022/05/14 04:23:02;;;;;;;7.05;3.03;;;11.70;99.90;;;;;;5102994;28;20031;-42
2022/05/14 04:25:27;;;;;;;7.38;3.15;;;11.70;99.90;;;;;;5095758;28;20526;-41
2022/05/14 04:27:53;;;;;;;5.53;3.38;;;11.70;99.90;;;;;;5103775;28;20036;-41
2022/05/14 04:30:19;;;;;;;7.97;3.15;;;11.70;99.90;;;;;;5093191;28;20016;-42
2022/05/14 04:32:44;;;;;;;5.85;3.30;;;11.70;99.90;;;;;;5103916;28;20585;-42
2022/05/14 04:35:12;;;;;;;9.63;3.20;;;11.70;99.90;;;;;;5094650;28;20844;-41
2022/05/14 04:37:38;;;;;;;7.55;3.47;;;11.70;99.90;;;;;;5105159;28;20015;-38
2022/05/14 04:40:05;;;;;;;7.80;3.22;;;11.70;99.90;;;;;;5092841;28;20471;-40
2022/05/14 04:42:31;;;;;;;7.85;3.42;;;11.70;99.90;;;;;;5104906;28;20051;-43
2022/05/14 04:44:57;;;;;;;5.05;3.40;;;11.70;99.90;;;;;;5092138;28;20071;-41
2022/05/14 04:47:22;;;;;;;6.65;3.22;;;11.70;99.90;;;;;;5105534;28;20023;-41
2022/05/14 04:49:48;;;;;;;6.72;3.75;;;11.70;99.90;;;;;;5094277;28;20759;-42
2022/05/14 04:52:14;;;;;;;7.15;3.60;;;11.70;99.90;;;;;;5103290;28;20110;-42
2022/05/14 04:54:40;;;;;;;5.65;3.35;;;11.70;99.90;;;;;;5096636;28;20024;-40
2022/05/14 04:57:07;;;;;;;7.03;3.33;;;11.70;99.90;;;;;;5100442;28;20031;-42
2022/05/14 04:59:33;;;;;;;7.65;3.35;;;11.70;99.90;;;;;;5099237;28;20081;-42
2022/05/14 05:04:45;;;;;;;4.63;3.22;;;11.70;99.90;;;;;;5099025;28;20060;-42
2022/05/14 05:07:11;;;;;;;6.93;3.25;;;11.70;99.90;;;;;;5101715;28;20024;-37
2022/05/14 05:09:37;;;;;;;6.30;3.47;;;11.70;99.90;;;;;;5094602;28;20449;-37
2022/05/14 05:12:03;;;;;;;8.18;4.28;;;11.70;99.90;;;;;;5097222;28;20096;-37
2022/05/14 05:14:29;;;;;;;7.03;3.72;;;11.70;99.90;;;;;;5089055;28;20055;-40
2022/05/14 05:16:54;;;;;;;7.07;3.30;;;11.80;99.90;;;;;;5100297;28;20040;-41
2022/05/14 05:19:20;;;;;;;7.03;3.60;;;11.80;99.90;;;;;;5088745;28;20039;-41
2022/05/14 05:21:46;;;;;;;9.88;3.75;;;11.80;99.90;;;;;;5099290;28;20048;-41
2022/05/14 05:24:12;;;;;;;6.78;3.50;;;11.80;99.90;;;;;;5088584;28;20028;-42
2022/05/14 05:26:38;;;;;;;6.30;3.92;;;11.80;99.90;;;;;;5100005;28;20394;-41
2022/05/14 05:29:04;;;;;;;8.25;3.67;;;11.80;99.90;;;;;;5088570;28;20461;-42
2022/05/14 05:31:31;;;;;;;6.20;3.47;;;11.90;99.90;;;;;;5100020;28;20042;-43
2022/05/14 05:33:58;;;;;;;6.82;3.35;;;11.90;99.90;;;;;;5088579;28;20024;-39
2022/05/14 05:36:24;;;;;;;7.63;3.60;;;11.90;99.90;;;;;;5098479;28;20088;-42
2022/05/14 05:38:51;;;;;;;5.88;3.10;;;11.90;99.90;;;;;;5089781;28;20039;-41
2022/05/14 05:41:17;;;;;;;7.57;4.45;;;12.00;99.90;;;;;;5095786;28;20019;-42
2022/05/14 05:43:42;;;;;;;9.27;3.45;;;12.00;99.90;;;;;;5091887;28;20028;-42
2022/05/14 05:46:09;;;;;;;5.82;3.55;;;12.00;99.90;;;;;;5093803;28;20031;-40
2022/05/14 05:48:35;;;;;;;7.00;3.55;;;12.10;99.90;;;;;;5094258;28;20020;-41
2022/05/14 05:51:00;;;;;;;9.13;3.70;;;12.20;99.90;;;;;;5091267;28;20043;-41
2022/05/14 05:56:46;;;;;;;7.88;3.65;;;12.20;99.90;;;;;;5096652;28;20131;-41
2022/05/14 05:58:55;;;;;;;5.93;3.45;;;12.50;99.90;;;;;;5094750;28;20055;-41
2022/05/14 06:01:21;;;;;;;7.70;3.40;;;12.70;99.90;;;;;;5090222;28;20387;-40
2022/05/14 06:03:48;;;;;;;8.05;3.88;;;12.80;99.90;;;;;;5096764;28;20048;-41
2022/05/14 06:06:14;;;;;;;6.78;3.63;;;12.90;99.90;;;;;;5088536;28;20024;-41
2022/05/14 06:08:40;;;;;;;8.82;4.43;;;13.00;99.90;;;;;;5103520;28;20058;-42
2022/05/14 06:11:05;;;;;;;7.30;3.42;;;13.00;99.90;;;;;;5106954;28;20055;-42
2022/05/14 06:13:32;;;;;;;8.15;4.32;;;13.20;99.90;;;;;;5095667;28;20020;-41
2022/05/14 06:15:59;;;;;;;8.93;4.00;;;13.20;99.90;;;;;;5106986;28;20043;-41
2022/05/14 06:18:25;;;;;;;7.80;3.90;;;13.30;99.90;;;;;;5098378;28;20153;-42
2022/05/14 06:20:51;;;;;;;7.72;3.65;;;13.40;99.90;;;;;;5087138;28;20122;-41
2022/05/14 06:23:17;;;;;;;7.10;4.28;;;13.50;99.90;;;;;;5099163;28;20026;-41
2022/05/14 06:25:42;;;;;;;11.93;4.80;;;13.60;99.90;;;;;;5087167;28;20032;-41
2022/05/14 06:28:08;;;;;;;8.98;4.57;;;13.60;99.90;;;;;;5097690;28;20045;-41
2022/05/14 06:30:33;;;;;;;9.43;4.72;;;13.60;99.90;;;;;;5088063;28;20028;-42
2022/05/14 06:33:06;;;;;;;8.75;4.75;;;13.70;99.90;;;;;;5095504;28;20072;-41
2022/05/14 06:35:32;;;;;;;8.85;4.55;;;13.70;99.90;;;;;;5088871;28;20747;-40
2022/05/14 06:37:59;;;;;;;8.90;4.30;;;13.70;99.90;;;;;;5094033;28;20016;-42
2022/05/14 06:40:25;;;;;;;11.07;4.90;;;13.70;99.90;;;;;;5092310;28;20024;-41
2022/05/14 06:42:50;;;;;;;10.63;4.45;;;13.80;99.90;;;;;;5090312;28;20019;-43
2022/05/14 06:45:16;;;;;;;7.45;4.65;;;13.80;99.90;;;;;;5092000;28;20047;-41
2022/05/14 06:47:41;;;;;;;9.77;4.75;;;13.90;99.90;;;;;;5087063;28;20028;-41
2022/05/14 06:50:07;;;;;;;8.20;4.70;;;13.90;99.90;;;;;;5096684;28;20024;-42
2022/05/14 06:52:34;;;;;;;10.55;4.90;;;13.90;99.90;;;;;;5087671;28;20133;-42
2022/05/14 06:55:01;;;;;;;8.70;5.20;;;13.90;99.90;;;;;;5097142;28;20039;-41
2022/05/14 06:57:29;;;;;;;7.97;4.05;;;13.90;99.90;;;;;;5085855;28;20031;-41
2022/05/14 06:59:54;;;;;;;11.55;5.32;;;13.90;99.90;;;;;;5098172;28;20397;-39
2022/05/14 07:02:20;;;;;;;12.52;5.82;;;13.90;99.90;;;;;;5086031;28;20498;-42
2022/05/14 07:07:31;;;;;;;10.40;4.78;;;14.00;99.90;;;;;;5085919;28;20247;-43
2022/05/14 07:09:56;;;;;;;11.00;5.53;;;14.10;99.90;;;;;;5092080;28;20624;-42
2022/05/14 07:12:22;;;;;;;9.80;5.00;;;14.10;99.90;;;;;;5106266;28;20076;-41
2022/05/14 07:14:48;;;;;;;12.93;5.63;;;14.10;99.90;;;;;;5093857;28;20055;-41
2022/05/14 07:17:20;;;;;;;10.93;5.05;;;14.20;99.90;;;;;;5105112;28;20030;-42
2022/05/14 07:19:45;;;;;;;11.15;5.93;;;14.20;99.90;;;;;;5094763;28;20024;-41
2022/05/14 07:22:15;;;;;;;10.50;5.20;;;14.30;99.90;;;;;;5103091;28;20483;-41
2022/05/14 07:24:41;;;;;;;12.68;5.18;;;14.30;99.90;;;;;;5095976;28;20074;-42
2022/05/14 07:27:11;;;;;;;8.68;5.30;;;14.40;99.90;;;;;;5101748;28;20100;-43
2022/05/14 07:29:48;;;;;;;13.55;5.40;;;14.50;99.90;;;;;;5099261;28;20028;-41
2022/05/14 07:32:19;;;;;;;14.25;5.70;;;14.50;99.90;;;;;;5099883;28;20114;-42
2022/05/14 07:34:45;;;;;;;10.02;5.85;;;14.60;99.90;;;;;;5100149;28;20074;-42
2022/05/14 07:37:24;;;;;;;8.73;5.00;;;14.60;99.90;;;;;;5098957;28;20088;-41
2022/05/14 07:39:54;;;;;;;11.00;4.95;;;14.70;99.90;;;;;;5099920;28;20046;-43
2022/05/14 07:42:46;;;;;;;11.20;5.20;;;14.70;99.90;;;;;;5098528;28;20030;-41
2022/05/14 07:45:17;;;;;;;13.10;5.70;;;14.80;99.90;;;;;;5087417;28;20044;-42
2022/05/14 07:47:43;;;;;;;9.55;4.63;;;14.80;99.90;;;;;;5099685;28;20040;-41
2022/05/14 07:50:09;;;;;;;9.32;5.00;;;14.90;99.90;;;;;;5100788;28;20077;-40
2022/05/14 07:52:36;;;;;;;9.48;4.18;;;14.90;99.90;;;;;;5097047;28;20027;-41
2022/05/14 07:55:03;;;;;;;9.35;4.90;;;15.00;99.90;;;;;;5102923;28;20049;-41
2022/05/14 07:57:29;;;;;;;10.57;5.35;;;15.10;99.90;;;;;;5095010;28;20490;-41
2022/05/14 07:59:54;;;;;;;7.95;4.20;;;15.20;99.90;;;;;;5104611;28;20025;-41
2022/05/14 08:02:37;;;;;;;9.43;3.60;;;15.30;99.90;;;;;;5094280;28;20050;-42
2022/05/14 08:05:04;;;;;;;;;;;15.40;99.90;;;;;;5104725;28;20047;-41
2022/05/14 08:07:31;;;;;;;14.10;5.60;;;15.50;99.90;;;;;;5093699;28;20437;-42
2022/05/14 08:09:57;;;;;;;14.40;4.90;;;15.50;99.90;;;;;;5088795;28;20031;-42
2022/05/14 08:12:22;;;;;;;10.48;4.65;;;15.60;99.90;;;;;;5097272;28;20020;-42
2022/05/14 08:14:51;;;;;;;7.18;3.80;;;15.70;99.90;;;;;;5085593;28;20020;-42
2022/05/14 08:17:16;;;;;;;11.40;4.13;;;15.80;99.90;;;;;;5098285;28;20719;-42
2022/05/14 08:19:42;;;;;;;9.93;3.70;;;15.80;99.90;;;;;;5085750;28;20042;-42
2022/05/14 08:24:52;;;;;;;7.50;2.97;;;16.00;99.80;;;;;;5065555;28;20055;-41
2022/05/14 08:27:18;;;;;;;9.60;3.20;;;16.10;99.60;;;;;;5094442;28;20059;-39
2022/05/14 08:29:47;;;;;;;10.60;2.92;;;16.20;99.50;;;;;;5064302;28;20028;-42
2022/05/14 08:32:13;;;;;;;4.93;2.35;;;16.30;99.30;;;;;;5089921;28;20075;-41
2022/05/14 08:34:39;;;;;;;10.60;3.65;;;16.40;99.10;;;;;;5087204;28;20050;-41
2022/05/14 08:37:06;;;;;;;10.13;3.78;;;16.50;98.90;;;;;;5092420;28;20626;-42
2022/05/14 08:39:32;;;;;;;8.90;2.95;;;16.60;98.90;;;;;;5089038;28;20577;-39
2022/05/14 08:42:00;;;;;;;11.43;2.97;;;16.80;98.60;;;;;;5094164;28;20070;-41
2022/05/14 08:44:32;;;;;;;6.72;2.17;;;16.80;98.40;;;;;;5095524;28;20040;-45
2022/05/14 08:47:05;;;;;;;9.40;3.20;;;16.90;98.30;;;;;;5092679;28;20051;-42
2022/05/14 08:49:44;;;;;;;7.40;2.60;;;16.90;98.20;;;;;;5095572;28;20060;-42
2022/05/14 08:52:19;;;;;;;8.15;3.40;;;17.00;98.20;;;;;;5093002;28;20134;-42
2022/05/14 08:54:45;;;;;;;7.13;3.38;;;17.00;98.10;;;;;;5095577;28;20036;-42
2022/05/14 08:57:39;;;;;;;12.45;4.65;;;17.00;98.10;;;;;;5090810;28;20024;-41
2022/05/14 09:00:07;;;;;;;6.57;3.53;;;17.00;98.10;;;;;;5094605;28;20032;-42
2022/05/14 09:02:36;;;;;;;5.57;2.88;;;17.00;98.10;;;;;;5092938;28;20026;-41
2022/05/14 09:05:08;;;;;;;5.70;2.80;;;17.10;98.10;;;;;;5095329;28;20131;-40
2022/05/14 09:07:36;;;;;;;6.32;2.70;;;17.10;98.00;;;;;;5091298;28;20097;-42
2022/05/14 09:10:05;;;;;;;9.73;3.25;;;17.20;97.90;;;;;;5089371;28;20058;-41
2022/05/14 09:12:34;;;;;;;7.35;3.22;;;17.40;97.80;;;;;;5089825;28;20016;-41
2022/05/14 09:15:12;;;;;;;7.35;3.05;;;17.50;97.70;;;;;;5099388;28;20024;-42
2022/05/14 09:17:37;;;;;;;6.53;3.28;;;17.70;97.50;;;;;;5089022;28;20025;-41
2022/05/14 09:20:03;;;;;;;8.48;3.35;;;17.80;97.30;;;;;;5100071;28;20027;-46
2022/05/14 09:22:34;;;;;;;9.75;4.35;;;18.00;97.30;;;;;;5088916;28;20455;-40
2022/05/14 09:25:25;;;;;;;7.03;3.17;;;18.10;96.90;;;;;;5099719;28;20074;-41
2022/05/14 09:28:06;;;;;;;7.63;3.22;;;18.40;96.80;;;;;;5084435;28;20513;-40
2022/05/14 09:30:35;;;;;;;8.63;2.83;;;18.60;96.50;;;;;;5087631;28;20795;-39
2022/05/14 09:33:02;;;;;;;6.30;3.08;;;18.80;96.30;;;;;;5106873;28;20020;-43
2022/05/14 09:35:33;;;;;;;7.88;2.22;;;19.00;96.10;;;;;;5096731;28;20023;-43
2022/05/14 09:38:10;;;;;;;7.30;2.30;;;19.10;95.80;;;;;;5107709;28;20364;-43
2022/05/14 09:40:36;;;;;;;7.28;2.33;;;19.20;95.50;;;;;;5095673;28;20015;-41
2022/05/14 09:43:17;;;;;;;6.60;2.35;;;19.30;95.00;;;;;;5107959;28;20049;-42
2022/05/14 09:46:01;;;;;;;7.82;2.50;;;19.30;94.60;;;;;;5096944;28;20089;-41
2022/05/14 09:48:49;;;;;;;8.25;3.35;;;19.40;94.60;;;;;;5088801;28;20368;-40
2022/05/14 09:51:43;;;;;;;8.27;3.00;;;19.40;94.30;;;;;;5087307;28;20828;-43
2022/05/14 09:54:21;;;;;;;6.80;2.75;;;19.40;94.30;;;;;;5103970;28;20134;-41
2022/05/14 09:57:05;;;;;;;12.30;3.35;;;19.50;94.00;;;;;;5099583;28;20501;-41
2022/05/14 09:59:46;;;;;;;7.82;3.08;;;19.50;93.60;;;;;;5101761;28;20475;-42
2022/05/14 10:02:23;;;;;;;4.93;2.20;;;19.60;93.60;;;;;;5102895;28;20580;-42
2022/05/14 10:05:10;;;;;;;8.85;2.67;;;19.60;93.60;;;;;;5101338;28;20051;-42
2022/05/14 10:07:43;;;;;;;8.05;2.72;;;19.60;93.20;;;;;;5103901;28;20101;-42
2022/05/14 10:10:32;;;;;;;7.72;2.88;;;19.60;93.10;;;;;;5099460;28;20024;-42
2022/05/14 10:13:13;;;;;;;10.52;2.70;;;19.70;93.10;;;;;;5106648;28;20027;-46
2022/05/14 10:15:45;;;;;;;5.47;2.33;;;19.80;92.80;;;;;;5097070;28;20674;-44
2022/05/14 10:18:32;;;;;;;10.50;2.35;;;19.90;92.70;;;;;;5107652;28;20120;-41
2022/05/14 10:21:33;;;;;;;8.13;3.15;;;19.90;92.30;;;;;;5095464;28;20031;-45
2022/05/14 10:27:28;;;;;;;5.35;1.98;;;20.40;91.60;;;;;;5094841;28;20499;-42
2022/05/14 10:30:29;;;;;;;12.10;3.17;;;20.50;91.50;;;;;;5088949;28;20028;-42
2022/05/14 10:33:00;;;;;;;7.10;2.88;;;20.50;91.40;;;;;;5091551;28;20458;-43
2022/05/14 10:35:31;;;;;;;6.65;2.20;;;20.50;91.10;;;;;;5103365;28;20102;-40
2022/05/14 10:38:03;;;;;;;7.78;2.70;;;20.50;91.00;;;;;;5099040;28;20035;-42
2022/05/14 10:40:37;;;;;;;7.70;2.80;;;20.50;90.70;;;;;;5105218;28;20027;-42
2022/05/14 10:43:37;;;;;;;10.68;2.85;;;20.60;90.60;;;;;;5097175;28;20280;-43
2022/05/14 10:46:08;;;;;;;7.45;2.92;;;20.60;90.50;;;;;;5047321;28;20036;-41
2022/05/14 10:48:53;;;;;;;5.43;3.10;;;20.60;90.50;;;;;;5098847;28;20424;-40
2022/05/14 10:51:25;;;;;;;6.97;2.72;;;20.70;90.50;;;;;;5100734;28;20031;-42
2022/05/14 10:53:51;;;;;;;8.00;2.72;;;20.80;90.40;;;;;;5100868;28;20028;-42
2022/05/14 10:56:34;;;;;;;5.22;2.22;;;21.00;90.00;;;;;;5101980;28;20147;-43
2022/05/14 10:59:01;;;;;;;6.80;2.50;;;21.10;89.30;;;;;;5101216;28;20059;-42
2022/05/14 11:01:29;;;;;;;7.60;2.47;;;21.10;89.30;;;;;;5102338;28;20026;-40
2022/05/14 11:04:13;;;;;;;9.65;2.60;;;21.20;89.20;;;;;;5097509;28;20071;-43
2022/05/14 11:07:01;;;;;;;8.23;3.08;;;21.40;88.60;;;;;;5102274;28;20032;-41
2022/05/14 11:09:48;;;;;;;5.75;2.47;;;21.60;87.90;;;;;;5088241;28;20101;-42
2022/05/14 11:12:19;;;;;;;5.60;2.15;;;21.80;87.50;;;;;;5093810;28;20402;-42
2022/05/14 11:14:48;;;;;;;7.05;2.30;;;22.00;87.50;;;;;;5090332;28;20043;-43
2022/05/14 11:17:29;;;;;;;8.20;2.45;;;22.00;87.30;;;;;;5091977;28;20035;-41
2022/05/14 11:20:04;;;;;;;6.90;2.33;;;22.10;87.10;;;;;;5090787;28;20464;-43
2022/05/14 11:22:39;;;;;;;7.10;2.70;;;22.10;87.00;;;;;;5093268;28;20020;-43
2022/05/14 11:25:16;;;;;;;4.63;2.08;;;22.10;86.30;;;;;;5089553;28;20549;-42
2022/05/14 11:27:54;;;;;;;5.85;2.15;;;22.10;86.40;;;;;;5093671;28;20774;-42
2022/05/14 11:30:33;;;;;;;5.40;1.95;;;22.10;86.30;;;;;;5089846;28;20028;-42
2022/05/14 11:33:16;;;;;;;9.00;2.70;;;22.10;86.20;;;;;;5092919;28;20466;-43
2022/05/14 11:35:43;;;;;;;5.35;2.33;;;22.00;86.70;;;;;;5087060;28;20055;-43
2022/05/14 11:38:23;;;;;;;6.95;2.65;;;22.00;86.00;;;;;;5094374;28;20028;-42
2022/05/14 11:40:55;;;;;;;9.02;2.72;;;21.90;85.60;;;;;;5089416;28;20039;-42
2022/05/14 11:43:27;;;;;;;6.05;2.20;;;21.90;85.40;;;;;;5094653;28;20023;-41
2022/05/14 11:46:28;;;;;;;6.82;2.42;;;21.80;85.40;;;;;;5089655;28;20035;-42
2022/05/14 11:49:06;;;;;;;6.65;2.75;;;21.80;85.10;;;;;;5056306;28;20028;-43
2022/05/14 11:51:46;;;;;;;9.13;2.60;;;21.80;84.40;;;;;;5064757;28;20036;-43
2022/05/14 11:54:20;;;;;;;4.45;2.00;;;21.80;84.70;;;;;;5094352;28;20051;-41
2022/05/14 11:56:58;;;;;;;7.80;3.25;;;21.80;84.70;;;;;;5064387;28;20773;-41
2022/05/14 11:59:38;;;;;;;7.05;2.45;;;21.90;84.50;;;;;;5092637;28;20676;-40
2022/05/14 12:02:19;;;;;;;8.48;2.58;;;22.00;84.00;;;;;;5084344;28;20055;-44
2022/05/14 12:04:47;;;;;;;7.30;2.30;;;22.10;83.70;;;;;;5096515;28;20117;-42
2022/05/14 12:07:42;;;;;;;4.22;2.08;;;22.20;83.30;;;;;;5085019;28;20032;-44
2022/05/14 12:10:22;;;;;;;8.35;3.03;;;22.40;83.10;;;;;;5098334;28;20496;-41
2022/05/14 12:12:51;;;;;;;9.00;2.95;;;22.50;82.20;;;;;;5084603;28;20537;-42
2022/05/14 12:15:22;;;;;;;4.25;2.30;;;22.50;82.10;;;;;;5101222;28;20024;-40
2022/05/14 12:17:56;;;;;;;7.43;2.22;;;22.60;81.90;;;;;;5089598;28;20809;-39
2022/05/14 12:20:26;;;;;;;8.85;3.00;;;22.70;82.00;;;;;;5101270;28;20027;-37
2022/05/14 12:22:56;;;;;;;5.15;2.30;;;22.70;81.60;;;;;;5090081;28;20030;-42
2022/05/14 12:25:38;;;;;;;6.78;2.72;;;22.60;81.30;;;;;;5101504;28;20047;-43
2022/05/14 12:28:05;;;;;;;4.50;2.00;;;22.40;81.30;;;;;;5089154;28;20020;-42
2022/05/14 12:33:19;;;;;;;6.63;2.38;;;22.30;81.80;;;;;;5089877;28;20507;-43
2022/05/14 12:35:58;;;;;;;5.05;2.15;;;22.20;81.40;;;;;;5102004;28;20027;-41
2022/05/14 12:38:31;;;;;;;6.88;2.10;;;22.20;81.30;;;;;;5087371;28;20109;-41
2022/05/14 12:40:57;;;;;;;5.13;1.88;;;22.10;81.50;;;;;;5101248;28;20035;-42
2022/05/14 12:43:26;;;;;;;3.72;1.75;;;22.10;81.80;;;;;;5088308;28;20773;-41
2022/05/14 12:46:22;;;;;;;5.88;2.13;;;22.10;82.00;;;;;;5100933;28;20043;-41
2022/05/14 12:48:52;;;;;;;5.90;2.50;;;22.30;81.90;;;;;;5067793;28;20024;-43
2022/05/14 12:51:24;;;;;;;7.90;2.63;;;22.40;81.50;;;;;;5099639;28;20019;-43
2022/05/14 12:53:52;;;;;;;5.22;2.20;;;22.60;81.20;;;;;;5090162;28;20034;-42
2022/05/14 12:56:20;;;;;;;5.22;1.92;;;22.60;80.80;;;;;;5101761;28;20067;-43
2022/05/14 12:58:46;;;;;;;6.63;2.03;;;22.60;80.80;;;;;;5090276;28;20537;-41
2022/05/14 13:01:14;;;;;;;7.38;2.50;;;22.50;80.60;;;;;;5099376;28;20028;-42
2022/05/14 13:03:46;;;;;;;6.32;2.35;;;22.40;80.60;;;;;;5089889;28;20063;-42
2022/05/14 13:06:28;;;;;;;5.90;1.80;;;22.30;80.10;;;;;;5098929;28;20130;-41
2022/05/14 13:08:58;;;;;;;4.70;2.03;;;22.30;80.70;;;;;;5096814;28;20089;-42
2022/05/14 13:11:26;;;;;;;6.32;2.33;;;22.30;80.80;;;;;;5099116;28;20032;-43
2022/05/14 13:13:56;;;;;;;6.05;2.40;;;22.30;81.00;;;;;;5106520;28;20019;-43
2022/05/14 13:16:28;;;;;;;7.00;2.28;;;22.30;80.90;;;;;;5100399;28;20031;-42
2022/05/14 13:18:57;;;;;;;4.97;1.73;;;22.30;80.90;;;;;;5105431;28;20039;-42
2022/05/14 13:21:35;;;;;;;5.22;1.77;;;22.30;81.00;;;;;;5102287;28;20016;-42